createdAt,value
2018-10-09T00:02:11.853Z,94.40
2018-10-09T00:04:40.669Z,94.30
2018-10-09T00:07:09.432Z,94.10
2018-10-09T00:09:38.159Z,94.10
2018-10-09T00:12:06.939Z,94.00
2018-10-09T00:14:35.705Z,94.00
2018-10-09T00:17:04.448Z,94.10
2018-10-09T00:19:33.218Z,94.20
2018-10-09T00:22:01.992Z,94.40
2018-10-09T00:24:30.745Z,94.50
2018-10-09T00:26:59.479Z,94.70
2018-10-09T00:29:28.237Z,94.80
2018-10-09T00:31:56.979Z,94.80
2018-10-09T00:34:25.725Z,94.90
2018-10-09T00:36:54.523Z,95.00
2018-10-09T00:39:23.264Z,95.10
2018-10-09T00:41:52.360Z,95.20
2018-10-09T00:44:21.109Z,95.60
2018-10-09T00:46:49.833Z,95.90
2018-10-09T00:49:18.665Z,96.00
2018-10-09T00:51:47.517Z,96.20
2018-10-09T00:54:16.354Z,96.00
2018-10-09T00:56:45.171Z,95.90
2018-10-09T00:59:13.928Z,96.30
2018-10-09T01:01:42.730Z,96.20
2018-10-09T01:04:11.485Z,96.20
2018-10-09T01:06:40.248Z,96.60
2018-10-09T01:09:09.487Z,96.70
2018-10-09T01:11:38.270Z,96.90
2018-10-09T01:14:07.001Z,97.00
2018-10-09T01:16:35.803Z,96.80
2018-10-09T01:19:05.143Z,96.50
2018-10-09T01:21:34.165Z,96.40
2018-10-09T01:24:02.957Z,96.30
2018-10-09T01:26:31.716Z,96.10
2018-10-09T01:29:00.433Z,96.00
2018-10-09T01:31:29.209Z,96.00
2018-10-09T01:33:57.937Z,96.00
2018-10-09T01:36:26.696Z,95.90
2018-10-09T01:38:55.505Z,95.90
2018-10-09T01:41:24.235Z,95.90
2018-10-09T01:43:52.998Z,96.20
2018-10-09T01:46:21.746Z,96.00
2018-10-09T01:48:50.581Z,96.00
2018-10-09T01:51:19.328Z,96.00
2018-10-09T01:53:48.054Z,96.20
2018-10-09T01:56:16.858Z,96.40
2018-10-09T01:58:45.701Z,96.50
2018-10-09T02:01:14.477Z,96.40
2018-10-09T02:03:43.233Z,96.50
2018-10-09T02:06:11.965Z,96.40
2018-10-09T02:08:40.703Z,96.40
2018-10-09T02:11:09.421Z,96.30
2018-10-09T02:13:38.182Z,96.20
2018-10-09T02:16:07.514Z,96.10
2018-10-09T02:18:36.259Z,96.20
2018-10-09T02:21:05.066Z,96.10
2018-10-09T02:23:33.817Z,96.00
2018-10-09T02:26:02.607Z,96.00
2018-10-09T02:28:31.425Z,96.00
2018-10-09T02:31:00.150Z,96.10
2018-10-09T02:33:29.013Z,96.20
2018-10-09T02:35:57.754Z,96.00
2018-10-09T02:38:26.552Z,96.00
2018-10-09T02:40:55.321Z,96.00
2018-10-09T02:43:24.065Z,96.10
2018-10-09T02:45:52.805Z,96.10
2018-10-09T02:48:21.598Z,96.20
2018-10-09T02:50:50.350Z,96.10
2018-10-09T02:53:19.163Z,96.10
2018-10-09T02:55:47.901Z,96.10
2018-10-09T02:58:16.698Z,96.20
2018-10-09T03:00:45.434Z,96.50
2018-10-09T03:03:14.551Z,96.50
2018-10-09T03:05:43.297Z,96.60
2018-10-09T03:08:13.046Z,96.90
2018-10-09T03:10:41.814Z,96.80
2018-10-09T03:13:10.557Z,96.70
2018-10-09T03:15:39.844Z,96.70
2018-10-09T03:18:08.825Z,97.00
2018-10-09T03:20:37.669Z,96.70
2018-10-09T03:23:06.389Z,96.80
2018-10-09T03:25:35.213Z,96.90
2018-10-09T03:28:04.035Z,96.80
2018-10-09T03:30:32.792Z,96.80
2018-10-09T03:33:01.541Z,96.80
2018-10-09T03:35:30.285Z,96.90
2018-10-09T03:37:59.049Z,96.90
2018-10-09T03:40:27.813Z,96.90
2018-10-09T03:42:56.589Z,96.90
2018-10-09T03:45:25.373Z,97.10
2018-10-09T03:47:54.113Z,96.80
2018-10-09T03:50:22.861Z,96.80
2018-10-09T03:52:51.638Z,96.90
2018-10-09T03:55:20.377Z,96.90
2018-10-09T03:57:49.152Z,97.00
2018-10-09T04:00:17.980Z,97.00
2018-10-09T04:02:46.742Z,97.30
2018-10-09T04:05:15.481Z,97.10
2018-10-09T04:07:44.349Z,97.10
2018-10-09T04:10:13.153Z,97.10
2018-10-09T04:12:41.966Z,97.10
2018-10-09T04:15:10.716Z,97.10
2018-10-09T04:17:39.458Z,97.40
2018-10-09T04:20:08.357Z,97.20
2018-10-09T04:22:37.096Z,97.20
2018-10-09T04:25:05.972Z,97.30
2018-10-09T04:27:34.697Z,97.30
2018-10-09T04:30:03.473Z,97.40
2018-10-09T04:32:32.213Z,97.50
2018-10-09T04:35:02.253Z,97.60
2018-10-09T04:37:31.043Z,97.70
2018-10-09T04:39:59.793Z,97.80
2018-10-09T04:42:28.598Z,98.00
2018-10-09T04:44:57.433Z,98.00
2018-10-09T04:47:26.220Z,98.20
2018-10-09T04:49:55.018Z,98.30
2018-10-09T04:52:23.780Z,98.40
2018-10-09T04:54:53.250Z,98.40
2018-10-09T04:57:22.009Z,98.40
2018-10-09T04:59:50.927Z,98.30
2018-10-09T05:02:19.766Z,98.30
2018-10-09T05:04:48.752Z,98.20
2018-10-09T05:07:17.558Z,98.00
2018-10-09T05:09:46.438Z,97.80
2018-10-09T05:12:15.181Z,97.80
2018-10-09T05:14:44.043Z,97.60
2018-10-09T05:17:12.773Z,97.70
2018-10-09T05:19:41.706Z,97.80
2018-10-09T05:22:10.498Z,97.80
2018-10-09T05:24:39.265Z,97.90
2018-10-09T05:27:08.075Z,97.70
2018-10-09T05:29:36.848Z,97.60
2018-10-09T05:32:05.657Z,97.50
2018-10-09T05:34:34.597Z,97.80
2018-10-09T05:37:03.358Z,97.40
2018-10-09T05:39:32.093Z,97.60
2018-10-09T05:42:00.842Z,97.60
2018-10-09T05:44:29.636Z,97.70
2018-10-09T05:46:58.356Z,97.60
2018-10-09T05:49:27.106Z,97.60
2018-10-09T05:51:55.877Z,97.40
2018-10-09T05:54:24.993Z,97.30
2018-10-09T05:56:53.844Z,97.20
2018-10-09T05:59:22.613Z,96.90
2018-10-09T06:01:51.402Z,96.90
2018-10-09T06:04:20.222Z,96.80
2018-10-09T06:06:49.007Z,96.90
2018-10-09T06:09:17.934Z,97.00
2018-10-09T06:11:46.709Z,96.90
2018-10-09T06:14:15.480Z,96.90
2018-10-09T06:16:44.242Z,96.90
2018-10-09T06:19:13.056Z,96.80
2018-10-09T06:21:41.933Z,96.80
2018-10-09T06:24:10.794Z,96.80
2018-10-09T06:26:39.565Z,96.80
2018-10-09T06:29:08.325Z,97.00
2018-10-09T06:31:37.113Z,96.70
2018-10-09T06:34:05.933Z,96.70
2018-10-09T06:36:34.626Z,96.70
2018-10-09T06:39:04.445Z,96.60
2018-10-09T06:41:34.296Z,96.60
2018-10-09T06:44:03.232Z,96.50
2018-10-09T06:46:32.150Z,96.50
2018-10-09T06:49:00.965Z,96.40
2018-10-09T06:51:29.794Z,96.40
2018-10-09T06:53:59.296Z,96.40
2018-10-09T06:56:27.974Z,96.20
2018-10-09T06:58:56.825Z,96.20
2018-10-09T07:01:25.667Z,96.00
2018-10-09T07:03:54.443Z,96.00
2018-10-09T07:06:23.330Z,96.00
2018-10-09T07:08:52.134Z,96.00
2018-10-09T07:11:21.050Z,95.50
2018-10-09T07:13:49.686Z,95.10
2018-10-09T07:16:18.454Z,94.90
2018-10-09T07:18:47.238Z,94.30
2018-10-09T07:21:15.993Z,94.00
2018-10-09T07:23:44.771Z,93.90
2018-10-09T07:26:13.578Z,93.30
2018-10-09T07:28:42.355Z,93.20
2018-10-09T07:31:11.106Z,93.20
2018-10-09T07:33:39.931Z,92.80
2018-10-09T07:36:08.726Z,92.70
2018-10-09T07:38:37.526Z,92.40
2018-10-09T07:41:06.407Z,92.60
2018-10-09T07:43:35.172Z,92.70
2018-10-09T07:46:03.919Z,92.20
2018-10-09T07:48:32.663Z,92.00
2018-10-09T07:51:01.479Z,91.90
2018-10-09T07:53:30.262Z,92.10
2018-10-09T07:55:59.066Z,92.10
2018-10-09T07:58:27.884Z,91.90
2018-10-09T08:00:56.586Z,91.60
2018-10-09T08:03:25.416Z,91.70
2018-10-09T08:05:54.190Z,91.40
2018-10-09T08:08:23.121Z,91.20
2018-10-09T08:10:52.028Z,91.30
2018-10-09T08:13:20.760Z,91.40
2018-10-09T08:15:49.580Z,91.10
2018-10-09T08:18:18.351Z,91.10
2018-10-09T08:20:47.123Z,91.00
2018-10-09T08:23:15.860Z,91.20
2018-10-09T08:25:44.748Z,91.00
2018-10-09T08:28:13.525Z,91.50
2018-10-09T08:30:42.315Z,91.40
2018-10-09T08:33:11.078Z,91.70
2018-10-09T08:35:39.813Z,91.90
2018-10-09T08:38:08.649Z,91.40
2018-10-09T08:40:37.386Z,91.70
2018-10-09T08:43:06.145Z,90.70
2018-10-09T08:45:34.892Z,90.30
2018-10-09T08:48:03.698Z,90.80
2018-10-09T08:50:32.486Z,90.20
2018-10-09T08:53:01.257Z,90.50
2018-10-09T08:55:29.986Z,90.00
2018-10-09T08:57:59.445Z,90.00
2018-10-09T09:00:28.208Z,89.60
2018-10-09T09:02:57.026Z,89.30
2018-10-09T09:05:28.679Z,88.80
2018-10-09T09:07:57.565Z,88.00
2018-10-09T09:10:26.311Z,87.50
2018-10-09T09:12:55.054Z,89.00
2018-10-09T09:15:23.872Z,88.40
2018-10-09T09:17:52.585Z,88.10
2018-10-09T09:20:21.386Z,88.20
2018-10-09T09:22:50.154Z,87.80
2018-10-09T09:25:18.931Z,87.70
2018-10-09T09:27:47.773Z,88.70
2018-10-09T09:30:16.422Z,87.10
2018-10-09T09:32:46.010Z,88.00
2018-10-09T09:35:14.866Z,87.10
2018-10-09T09:37:43.617Z,86.50
2018-10-09T09:40:12.367Z,86.50
2018-10-09T09:42:41.156Z,86.10
2018-10-09T09:45:09.903Z,83.40
2018-10-09T09:47:38.648Z,82.50
2018-10-09T09:50:07.560Z,82.50
2018-10-09T09:52:36.330Z,82.20
2018-10-09T09:55:05.166Z,82.00
2018-10-09T09:57:33.935Z,83.50
2018-10-09T10:00:02.777Z,82.10
2018-10-09T10:02:32.046Z,81.10
2018-10-09T10:05:00.850Z,81.50
2018-10-09T10:07:29.862Z,81.60
2018-10-09T10:09:58.702Z,82.20
2018-10-09T10:12:27.446Z,80.40
2018-10-09T10:14:56.286Z,79.70
2018-10-09T10:17:25.044Z,81.30
2018-10-09T10:19:53.843Z,79.10
2018-10-09T10:22:22.654Z,80.50
2018-10-09T10:24:51.994Z,80.20
2018-10-09T10:27:20.714Z,79.80
2018-10-09T10:29:49.526Z,80.70
2018-10-09T10:32:18.307Z,79.60
2018-10-09T10:34:47.078Z,79.10
2018-10-09T10:37:15.936Z,77.50
2018-10-09T10:39:44.649Z,77.50
2018-10-09T10:42:13.543Z,78.60
2018-10-09T10:44:42.261Z,77.30
2018-10-09T10:47:11.068Z,75.50
2018-10-09T10:49:39.845Z,75.80
2018-10-09T10:52:08.633Z,75.70
2018-10-09T10:54:37.466Z,74.40
2018-10-09T10:57:06.314Z,74.70
2018-10-09T10:59:35.082Z,75.30
2018-10-09T11:02:03.854Z,75.90
2018-10-09T11:04:32.593Z,75.40
2018-10-09T11:07:01.371Z,76.70
2018-10-09T11:09:30.196Z,76.60
2018-10-09T11:11:58.938Z,75.90
2018-10-09T11:14:27.763Z,75.90
2018-10-09T11:16:57.093Z,75.00
2018-10-09T11:19:25.850Z,74.60
2018-10-09T11:21:54.598Z,75.20
2018-10-09T11:24:23.377Z,76.50
2018-10-09T11:26:52.147Z,76.60
2018-10-09T11:29:20.914Z,76.30
2018-10-09T11:31:49.673Z,77.60
2018-10-09T11:34:18.439Z,77.80
2018-10-09T11:36:47.191Z,78.50
2018-10-09T11:39:15.926Z,78.70
2018-10-09T11:41:44.802Z,79.60
2018-10-09T11:44:13.605Z,77.40
2018-10-09T11:46:42.378Z,77.60
2018-10-09T11:49:11.199Z,76.90
2018-10-09T11:51:39.975Z,77.90
2018-10-09T11:54:08.707Z,77.20
2018-10-09T11:56:37.506Z,77.00
2018-10-09T11:59:06.321Z,77.10
2018-10-09T12:01:35.045Z,75.30
2018-10-09T12:04:03.806Z,75.70
2018-10-09T12:06:32.606Z,74.60
2018-10-09T12:09:01.408Z,75.50
2018-10-09T12:11:30.157Z,75.20
2018-10-09T12:13:58.927Z,76.40
2018-10-09T12:16:27.690Z,76.10
2018-10-09T12:18:56.447Z,74.40
2018-10-09T12:21:25.288Z,74.00
2018-10-09T12:23:54.000Z,75.10
2018-10-09T12:26:22.777Z,75.20
2018-10-09T12:28:51.558Z,74.20
2018-10-09T12:31:20.325Z,75.80
2018-10-09T12:33:49.658Z,74.60
2018-10-09T12:36:18.421Z,74.20
2018-10-09T12:38:47.141Z,75.40
2018-10-09T12:41:15.887Z,73.70
2018-10-09T12:43:44.744Z,74.80
2018-10-09T12:46:13.574Z,74.40
2018-10-09T12:48:42.363Z,72.80
2018-10-09T12:51:11.090Z,73.50
2018-10-09T12:53:39.892Z,72.30
2018-10-09T12:58:43.805Z,73.60
2018-10-09T13:01:12.558Z,72.50
2018-10-09T13:03:41.298Z,70.90
2018-10-09T13:06:10.074Z,70.10
2018-10-09T13:08:38.825Z,70.90
2018-10-09T13:11:07.685Z,70.40
2018-10-09T13:13:36.471Z,71.70
2018-10-09T13:16:05.245Z,69.30
2018-10-09T13:18:34.034Z,70.00
2018-10-09T13:21:04.030Z,69.60
2018-10-09T13:23:32.622Z,70.10
2018-10-09T13:26:01.382Z,72.10
2018-10-09T13:28:30.210Z,71.20
2018-10-09T13:30:59.080Z,68.60
2018-10-09T13:33:27.777Z,68.70
2018-10-09T13:35:56.523Z,69.90
2018-10-09T13:38:25.379Z,69.60
2018-10-09T13:40:54.170Z,68.30
2018-10-09T13:43:23.011Z,68.30
2018-10-09T13:45:51.718Z,67.70
2018-10-09T13:48:20.511Z,68.90
2018-10-09T13:50:49.402Z,69.20
2018-10-09T13:53:18.099Z,68.30
2018-10-09T13:55:46.855Z,70.10
2018-10-09T13:58:15.638Z,69.10
2018-10-09T14:00:44.434Z,66.30
2018-10-09T14:03:14.031Z,63.90
2018-10-09T14:05:42.841Z,64.80
2018-10-09T14:08:11.794Z,65.00
2018-10-09T14:10:40.763Z,65.00
2018-10-09T14:13:09.852Z,65.90
2018-10-09T14:15:38.869Z,67.40
2018-10-09T14:18:07.634Z,68.50
2018-10-09T14:20:36.422Z,66.70
2018-10-09T14:23:05.208Z,68.30
2018-10-09T14:25:34.011Z,66.20
2018-10-09T14:28:16.608Z,67.60
2018-10-09T14:30:45.377Z,67.20
2018-10-09T14:33:14.246Z,63.20
2018-10-09T14:35:43.166Z,61.40
2018-10-09T14:38:11.788Z,62.00
2018-10-09T14:40:40.531Z,64.10
2018-10-09T14:43:09.318Z,64.10
2018-10-09T14:45:38.053Z,63.50
2018-10-09T14:48:06.819Z,64.60
2018-10-09T14:50:35.553Z,63.60
2018-10-09T14:53:04.355Z,65.30
2018-10-09T14:55:33.159Z,64.90
2018-10-09T14:58:01.904Z,64.20
2018-10-09T15:00:30.647Z,63.70
2018-10-09T15:02:59.456Z,64.00
2018-10-09T15:05:28.206Z,64.70
2018-10-09T15:07:56.942Z,63.40
2018-10-09T15:10:25.702Z,64.10
2018-10-09T15:12:54.466Z,65.50
2018-10-09T15:15:23.221Z,65.20
2018-10-09T15:17:51.986Z,65.00
2018-10-09T15:20:20.791Z,65.70
2018-10-09T15:22:49.622Z,67.80
2018-10-09T15:25:18.409Z,68.70
2018-10-09T15:27:48.707Z,70.10
2018-10-09T15:30:17.758Z,70.10
2018-10-09T15:32:46.585Z,70.70
2018-10-09T15:35:15.457Z,72.90
2018-10-09T15:37:44.101Z,72.70
2018-10-09T15:40:12.860Z,72.40
2018-10-09T15:42:41.659Z,72.80
2018-10-09T15:45:10.439Z,73.40
2018-10-09T15:47:39.269Z,73.10
2018-10-09T15:50:08.023Z,73.00
2018-10-09T15:52:36.884Z,72.50
2018-10-09T15:55:05.675Z,73.30
2018-10-09T15:57:34.463Z,74.00
2018-10-09T16:00:03.279Z,74.50
2018-10-09T16:02:32.109Z,75.00
2018-10-09T16:05:00.842Z,75.50
2018-10-09T16:07:29.582Z,75.90
2018-10-09T16:09:58.375Z,75.70
2018-10-09T16:12:27.094Z,76.70
2018-10-09T16:14:55.841Z,76.90
2018-10-09T16:17:24.642Z,77.10
2018-10-09T16:19:53.417Z,77.40
2018-10-09T16:22:22.311Z,78.20
2018-10-09T16:24:51.129Z,78.80
2018-10-09T16:27:19.882Z,79.20
2018-10-09T16:29:48.610Z,79.30
2018-10-09T16:32:17.439Z,79.80
2018-10-09T16:34:46.186Z,80.00
2018-10-09T16:37:15.032Z,80.40
2018-10-09T16:39:43.819Z,80.80
2018-10-09T16:42:12.554Z,81.40
2018-10-09T16:44:41.362Z,82.10
2018-10-09T16:47:10.125Z,82.50
2018-10-09T16:49:39.243Z,82.40
2018-10-09T16:52:08.100Z,82.70
2018-10-09T16:54:36.886Z,83.10
2018-10-09T16:57:05.675Z,83.50
2018-10-09T16:59:34.552Z,84.60
2018-10-09T17:02:03.265Z,85.40
2018-10-09T17:04:32.102Z,85.00
2018-10-09T17:07:00.928Z,85.20
2018-10-09T17:09:29.670Z,85.40
2018-10-09T17:11:58.399Z,85.50
2018-10-09T17:14:27.198Z,85.90
2018-10-09T17:16:55.949Z,86.40
2018-10-09T17:19:24.700Z,87.10
2018-10-09T17:21:53.602Z,87.60
2018-10-09T17:24:22.366Z,87.80
2018-10-09T17:26:51.199Z,88.60
2018-10-09T17:29:19.894Z,89.10
2018-10-09T17:31:48.627Z,89.80
2018-10-09T17:34:17.972Z,90.00
2018-10-09T17:36:46.703Z,89.80
2018-10-09T17:39:15.552Z,89.40
2018-10-09T17:41:44.278Z,89.60
2018-10-09T17:44:13.127Z,90.20
2018-10-09T17:46:41.889Z,89.70
2018-10-09T17:49:10.606Z,90.30
2018-10-09T17:51:39.377Z,90.40
2018-10-09T17:54:08.160Z,90.60
2018-10-09T17:56:36.854Z,90.90
2018-10-09T17:59:05.709Z,90.70
2018-10-09T18:01:34.522Z,90.90
2018-10-09T18:04:03.315Z,91.10
2018-10-09T18:06:32.051Z,91.20
2018-10-09T18:09:00.826Z,91.40
2018-10-09T18:11:29.634Z,91.30
2018-10-09T18:13:58.437Z,91.40
2018-10-09T18:16:27.185Z,91.50
2018-10-09T18:18:55.935Z,91.80
2018-10-09T18:21:24.662Z,91.90
2018-10-09T18:23:53.474Z,92.00
2018-10-09T18:26:22.233Z,92.10
2018-10-09T18:28:50.998Z,92.20
2018-10-09T18:31:19.742Z,92.20
2018-10-09T18:33:48.511Z,92.30
2018-10-09T18:36:17.298Z,92.50
2018-10-09T18:38:47.938Z,92.60
2018-10-09T18:41:16.841Z,93.10
2018-10-09T18:43:45.450Z,92.80
2018-10-09T18:46:14.252Z,93.10
2018-10-09T18:48:43.070Z,93.10
2018-10-09T18:51:11.841Z,93.00
2018-10-09T18:53:40.631Z,93.10
2018-10-09T18:56:09.491Z,93.10
2018-10-09T18:58:38.280Z,93.10
2018-10-09T19:01:07.114Z,93.20
2018-10-09T19:03:35.907Z,93.20
2018-10-09T19:06:04.706Z,93.30
2018-10-09T19:08:33.494Z,93.40
2018-10-09T19:11:02.381Z,93.50
2018-10-09T19:13:31.155Z,93.60
2018-10-09T19:16:00.246Z,93.60
2018-10-09T19:18:29.929Z,94.10
2018-10-09T19:20:59.607Z,93.80
2018-10-09T19:23:28.504Z,93.80
2018-10-09T19:25:57.290Z,93.80
2018-10-09T19:28:26.097Z,93.90
2018-10-09T19:30:54.883Z,93.90
2018-10-09T19:33:23.661Z,94.10
2018-10-09T19:35:52.394Z,94.00
2018-10-09T19:38:21.239Z,94.10
2018-10-09T19:40:49.999Z,94.10
2018-10-09T19:43:18.774Z,94.00
2018-10-09T19:45:47.554Z,94.00
2018-10-09T19:48:16.291Z,94.00
2018-10-09T19:50:45.119Z,93.80
2018-10-09T19:53:13.804Z,93.70
2018-10-09T19:55:42.551Z,93.70
2018-10-09T19:58:11.311Z,93.70
2018-10-09T20:00:41.905Z,93.50
2018-10-09T20:03:10.925Z,93.50
2018-10-09T20:05:39.753Z,93.30
2018-10-09T20:08:08.811Z,93.30
2018-10-09T20:10:37.634Z,93.30
2018-10-09T20:13:06.736Z,93.10
2018-10-09T20:15:35.530Z,93.10
2018-10-09T20:18:04.512Z,93.10
2018-10-09T20:20:33.551Z,93.50
2018-10-09T20:23:02.599Z,93.20
2018-10-09T20:25:31.615Z,93.20
2018-10-09T20:28:00.661Z,93.30
2018-10-09T20:30:29.499Z,93.40
2018-10-09T20:32:58.682Z,93.40
2018-10-09T20:35:27.613Z,93.40
2018-10-09T20:37:56.824Z,93.50
2018-10-09T20:40:25.583Z,93.60
2018-10-09T20:42:54.358Z,93.70
2018-10-09T20:45:23.122Z,93.70
2018-10-09T20:47:51.943Z,93.80
2018-10-09T20:50:20.743Z,93.90
2018-10-09T20:52:49.781Z,94.00
2018-10-09T20:55:18.560Z,94.00
2018-10-09T20:57:47.315Z,94.10
2018-10-09T21:00:17.132Z,94.30
2018-10-09T21:02:45.903Z,94.40
2018-10-09T21:05:14.704Z,94.50
2018-10-09T21:07:43.465Z,94.60
2018-10-09T21:10:12.215Z,94.60
2018-10-09T21:12:40.990Z,94.50
2018-10-09T21:15:09.747Z,94.50
2018-10-09T21:17:38.802Z,94.60
2018-10-09T21:20:08.578Z,94.60
2018-10-09T21:22:37.402Z,94.60
2018-10-09T21:25:06.213Z,94.60
2018-10-09T21:27:35.006Z,94.70
2018-10-09T21:30:04.767Z,94.80
2018-10-09T21:32:33.519Z,94.80
2018-10-09T21:35:02.358Z,94.90
2018-10-09T21:37:33.749Z,94.90
2018-10-09T21:40:03.510Z,94.90
2018-10-09T21:42:32.246Z,94.90
2018-10-09T21:45:02.464Z,95.00
2018-10-09T21:47:32.931Z,95.00
2018-10-09T21:50:02.841Z,95.00
2018-10-09T21:52:33.223Z,95.10
2018-10-09T21:55:04.320Z,95.10
2018-10-09T21:57:33.258Z,95.10
2018-10-09T22:00:02.246Z,95.10
2018-10-09T22:02:31.027Z,95.00
2018-10-09T22:04:59.778Z,95.00
2018-10-09T22:07:28.579Z,95.10
2018-10-09T22:09:57.362Z,95.10
2018-10-09T22:12:26.154Z,95.20
2018-10-09T22:14:54.899Z,95.30
2018-10-09T22:17:23.643Z,95.30
2018-10-09T22:19:52.396Z,95.30
2018-10-09T22:22:21.215Z,95.30
2018-10-09T22:24:50.086Z,95.30
2018-10-09T22:27:18.843Z,95.20
2018-10-09T22:29:47.637Z,95.50
2018-10-09T22:32:16.700Z,95.20
2018-10-09T22:34:45.743Z,95.20
2018-10-09T22:37:14.522Z,95.20
2018-10-09T22:39:43.271Z,95.30
2018-10-09T22:42:12.143Z,95.40
2018-10-09T22:44:40.906Z,95.50
2018-10-09T22:47:09.683Z,95.50
2018-10-09T22:49:38.427Z,95.50
2018-10-09T22:52:07.217Z,95.50
2018-10-09T22:54:35.979Z,95.60
2018-10-09T22:57:04.749Z,95.70
2018-10-09T22:59:33.551Z,95.70
2018-10-09T23:02:02.424Z,95.70
2018-10-09T23:04:31.190Z,95.80
2018-10-09T23:06:59.930Z,95.70
2018-10-09T23:09:28.686Z,95.80
2018-10-09T23:11:58.002Z,95.80
2018-10-09T23:14:26.742Z,95.80
2018-10-09T23:16:55.530Z,95.90
2018-10-09T23:19:24.393Z,95.90
2018-10-09T23:21:53.154Z,95.80
2018-10-09T23:24:21.919Z,95.80
2018-10-09T23:26:50.655Z,95.90
2018-10-09T23:29:19.498Z,95.90
2018-10-09T23:31:48.259Z,96.00
2018-10-09T23:34:17.041Z,96.00
2018-10-09T23:36:45.882Z,96.00
2018-10-09T23:39:14.663Z,96.00
2018-10-09T23:41:43.456Z,96.20
2018-10-09T23:44:12.251Z,96.10
2018-10-09T23:46:41.027Z,96.20
2018-10-09T23:49:09.777Z,96.30
2018-10-09T23:51:38.674Z,96.10
2018-10-09T23:54:07.404Z,96.20
2018-10-09T23:56:36.178Z,96.20
2018-10-09T23:59:04.926Z,96.20
